Flight Track Log - Related Links

Times and Time Zones

All times are in EST time to prevent confusion due to time zone crossing. See the UAL33 flight status page for this flight to view local times or setup timezone preferences in your user account.

Time Position Orientation Groundspeed Altitude Reporting Facility
EST Latitude Longitude Course Direction KTS MPH feet Rate Location/Type
Sun 04:22:00 AM 36.1083 140.9746 54° Northeast  Level FlightAware Approximate
Sun 04:23:00 AM 36.1938 141.1225 54° Northeast  Level FlightAware Approximate
Sun 04:24:00 AM 36.2790 141.2707 54° Northeast  Level FlightAware Approximate
Sun 04:25:00 AM 36.3641 141.4192 55° Northeast  Level FlightAware Approximate
Sun 04:26:00 AM 36.4490 141.5680 55° Northeast  Level FlightAware Approximate
Sun 04:27:00 AM 36.5337 141.7172 55° Northeast  Level FlightAware Approximate
Sun 04:28:00 AM 36.6183 141.8667 55° Northeast  Level FlightAware Approximate
Sun 04:29:00 AM 36.7026 142.0165 55° Northeast  Level FlightAware Approximate
Sun 04:30:00 AM 36.7868 142.1666 55° Northeast  Level FlightAware Approximate
Sun 04:31:00 AM 36.8707 142.3171 55° Northeast  Level FlightAware Approximate
Sun 04:32:00 AM 36.9501 142.4716 55° Northeast  Level Estimated
Sun 04:33:00 AM 37.0337 142.6227 55° Northeast  Level FlightAware Approximate
Sun 04:34:00 AM 37.1171 142.7741 55° Northeast  Level FlightAware Approximate
Sun 04:35:00 AM 37.2003 142.9259 55° Northeast  Level FlightAware Approximate
Sun 04:36:00 AM 37.2833 143.0780 56° Northeast  Level FlightAware Approximate
Sun 04:37:00 AM 37.3662 143.2305 56° Northeast  Level FlightAware Approximate
Sun 04:38:00 AM 37.4488 143.3832 56° Northeast  Level FlightAware Approximate
Sun 04:39:00 AM 37.5312 143.5364 56° Northeast  Level FlightAware Approximate
Sun 04:40:00 AM 37.6135 143.6898 56° Northeast  Level FlightAware Approximate
Sun 04:41:00 AM 37.6955 143.8436 56° Northeast  Level FlightAware Approximate
Sun 04:42:00 AM 37.7774 143.9978 56° Northeast  Level FlightAware Approximate
Sun 04:43:00 AM 37.8590 144.1522 56° Northeast  Level FlightAware Approximate
Sun 04:44:00 AM 37.9404 144.3071 56° Northeast  Level FlightAware Approximate
Sun 04:45:00 AM 38.0217 144.4622 56° Northeast  Level FlightAware Approximate
Sun 04:46:00 AM 38.1027 144.6177 56° Northeast  Level FlightAware Approximate
Sun 04:47:00 AM 38.1835 144.7736 57° Northeast  Level FlightAware Approximate
Sun 04:48:00 AM 38.2641 144.9298 57° Northeast  Level FlightAware Approximate
Sun 04:49:00 AM 38.3446 145.0863 57° Northeast  Level FlightAware Approximate
Sun 04:50:00 AM 38.4242 145.2421 57° Northeast  Level FlightAware Approximate
Sun 04:51:00 AM 38.5036 145.3981 57° Northeast  Level FlightAware Approximate
Sun 04:52:00 AM 38.5828 145.5546 57° Northeast  Level FlightAware Approximate
Sun 04:53:00 AM 38.6618 145.7113 57° Northeast  Level FlightAware Approximate
Sun 04:54:00 AM 38.7406 145.8685 57° Northeast  Level FlightAware Approximate
Sun 04:55:00 AM 38.8191 146.0259 57° Northeast  Level FlightAware Approximate
Sun 04:56:00 AM 38.8975 146.1837 57° Northeast  Level FlightAware Approximate
Sun 04:57:00 AM 38.9756 146.3419 58° Northeast  Level FlightAware Approximate
Sun 04:58:00 AM 39.0536 146.5004 58° Northeast  Level FlightAware Approximate
Sun 04:59:00 AM 39.1313 146.6593 58° Northeast  Level FlightAware Approximate
Sun 05:00:00 AM 39.2088 146.8185 58° Northeast  Level FlightAware Approximate
Sun 05:01:00 AM 39.2861 146.9780 58° Northeast  Level FlightAware Approximate
Sun 05:02:00 AM 39.3631 147.1379 58° Northeast  Level FlightAware Approximate
Sun 05:03:00 AM 39.4400 147.2982 58° Northeast  Level FlightAware Approximate
Sun 05:04:00 AM 39.5166 147.4588 58° Northeast  Level FlightAware Approximate
Sun 05:05:00 AM 39.5930 147.6198 58° Northeast  Level FlightAware Approximate
Sun 05:06:00 AM 39.6692 147.7811 58° Northeast  Level FlightAware Approximate
Sun 05:07:00 AM 39.7452 147.9428 59° Northeast  Level FlightAware Approximate
Sun 05:08:00 AM 39.8209 148.1048 59° Northeast  Level FlightAware Approximate
Sun 05:09:00 AM 39.8964 148.2672 59° Northeast  Level FlightAware Approximate
Sun 05:10:00 AM 39.9717 148.4300 59° Northeast  Level FlightAware Approximate
Sun 05:11:00 AM 40.0467 148.5931 59° Northeast  Level FlightAware Approximate
Sun 05:12:00 AM 40.1215 148.7566 59° Northeast  Level FlightAware Approximate
Sun 05:13:00 AM 40.1961 148.9204 59° Northeast  Level FlightAware Approximate
Sun 05:14:00 AM 40.2705 149.0846 59° Northeast  Level FlightAware Approximate
Sun 05:15:00 AM 40.3446 149.2491 59° Northeast  Level FlightAware Approximate
Sun 05:16:00 AM 40.4185 149.4140 59° Northeast  Level FlightAware Approximate
Sun 05:17:00 AM 40.4922 149.5793 60° Northeast  Level FlightAware Approximate
Sun 05:18:00 AM 40.5656 149.7450 60° Northeast  Level FlightAware Approximate
Sun 05:19:00 AM 40.6388 149.9110 60° Northeast  Level FlightAware Approximate
Sun 05:20:00 AM 40.7117 150.0773 60° Northeast  Level FlightAware Approximate
Sun 05:21:00 AM 40.7844 150.2441 60° Northeast  Level FlightAware Approximate
Sun 05:22:00 AM 40.8569 150.4112 60° Northeast  Level FlightAware Approximate
Sun 05:23:00 AM 40.9291 150.5786 60° Northeast  Level FlightAware Approximate
Sun 05:24:00 AM 41.0011 150.7464 60° Northeast  Level FlightAware Approximate
Sun 05:25:00 AM 41.0729 150.9146 60° Northeast  Level FlightAware Approximate
Sun 05:26:00 AM 41.1444 151.0832 61° Northeast  Level FlightAware Approximate
Sun 05:27:00 AM 41.2156 151.2521 61° Northeast  Level FlightAware Approximate
Sun 05:28:00 AM 41.2866 151.4214 61° Northeast  Level FlightAware Approximate
Sun 05:29:00 AM 41.3574 151.5911 61° Northeast  Level FlightAware Approximate
Sun 05:30:00 AM 41.4279 151.7611 61° Northeast  Level FlightAware Approximate
Sun 05:31:00 AM 41.4981 151.9315 61° Northeast  Level FlightAware Approximate
Sun 05:32:00 AM 41.5681 152.1023 61° Northeast  Level FlightAware Approximate
Sun 05:33:00 AM 41.6379 152.2734 61° Northeast  Level FlightAware Approximate
Sun 05:34:00 AM 41.7074 152.4449 61° Northeast  Level FlightAware Approximate
Sun 05:35:00 AM 41.7766 152.6168 62° Northeast  Level FlightAware Approximate
Sun 05:36:00 AM 41.8456 152.7891 62° Northeast  Level FlightAware Approximate
Sun 05:37:00 AM 41.9143 152.9617 62° Northeast  Level FlightAware Approximate
Sun 05:38:00 AM 41.9827 153.1347 62° Northeast  Level FlightAware Approximate
Sun 05:39:00 AM 42.0509 153.3080 62° Northeast  Level FlightAware Approximate
Sun 05:40:00 AM 42.1189 153.4818 62° Northeast  Level FlightAware Approximate
Sun 05:41:00 AM 42.1866 153.6559 62° Northeast  Level FlightAware Approximate
Sun 05:42:00 AM 42.2540 153.8304 62° Northeast  Level FlightAware Approximate
Sun 05:43:00 AM 42.3211 154.0052 63° Northeast  Level FlightAware Approximate
Sun 05:44:00 AM 42.3880 154.1804 63° Northeast  Level FlightAware Approximate
Sun 05:45:00 AM 42.4546 154.3560 63° Northeast  Level FlightAware Approximate
Sun 05:46:00 AM 42.5210 154.5320 63° Northeast  Level FlightAware Approximate
Sun 05:47:00 AM 42.5871 154.7084 63° Northeast  Level FlightAware Approximate
Sun 05:48:00 AM 42.6529 154.8851 63° Northeast  Level FlightAware Approximate
Sun 05:49:00 AM 42.7184 155.0622 63° Northeast  Level FlightAware Approximate
Sun 05:50:00 AM 42.7837 155.2396 63° Northeast  Level FlightAware Approximate
Sun 05:51:00 AM 42.8487 155.4175 63° Northeast  Level FlightAware Approximate
Sun 05:52:00 AM 42.9134 155.5957 64° Northeast  Level FlightAware Approximate
Sun 05:53:00 AM 42.9778 155.7743 64° Northeast  Level FlightAware Approximate
Sun 05:54:00 AM 43.0420 155.9532 64° Northeast  Level FlightAware Approximate
Sun 05:55:00 AM 43.1059 156.1326 64° Northeast  Level FlightAware Approximate
Sun 05:56:00 AM 43.1694 156.3123 64° Northeast  Level FlightAware Approximate
Sun 05:57:00 AM 43.2328 156.4924 64° Northeast  Level FlightAware Approximate
Sun 05:58:00 AM 43.2958 156.6728 64° Northeast  Level FlightAware Approximate
Sun 05:59:00 AM 43.3585 156.8537 64° Northeast  Level FlightAware Approximate
Sun 06:00:00 AM 43.4210 157.0349 65° Northeast  Level FlightAware Approximate
Sun 06:01:00 AM 43.4832 157.2164 65° Northeast  Level FlightAware Approximate
Sun 06:02:00 AM 43.5451 157.3984 65° Northeast  Level FlightAware Approximate
Sun 06:03:00 AM 43.6067 157.5807 65° Northeast  Level FlightAware Approximate
Sun 06:04:00 AM 43.6680 157.7634 65° Northeast  Level FlightAware Approximate
Sun 06:05:00 AM 43.7290 157.9465 65° Northeast  Level FlightAware Approximate
Sun 06:06:00 AM 43.7897 158.1299 65° Northeast  Level FlightAware Approximate
Sun 06:07:00 AM 43.8501 158.3137 65° Northeast  Level FlightAware Approximate
Sun 06:08:00 AM 43.9103 158.4979 66° East  Level FlightAware Approximate
Sun 06:09:00 AM 43.9701 158.6825 66° East  Level FlightAware Approximate
Sun 06:10:00 AM 44.0297 158.8674 66° East  Level FlightAware Approximate
Sun 06:11:00 AM 44.0889 159.0527 66° East  Level FlightAware Approximate
Sun 06:12:00 AM 44.1478 159.2384 66° East  Level FlightAware Approximate
Sun 06:13:00 AM 44.2065 159.4244 66° East  Level FlightAware Approximate
Sun 06:14:00 AM 44.2648 159.6108 66° East  Level FlightAware Approximate
Sun 06:15:00 AM 44.3228 159.7976 66° East  Level FlightAware Approximate
Sun 06:16:00 AM 44.3806 159.9848 67° East  Level FlightAware Approximate
Sun 06:17:00 AM 44.4380 160.1723 67° East  Level FlightAware Approximate
Sun 06:18:00 AM 44.4951 160.3602 67° East  Level FlightAware Approximate
Sun 06:19:00 AM 44.5519 160.5484 67° East  Level FlightAware Approximate
Sun 06:20:00 AM 44.6084 160.7370 67° East  Level FlightAware Approximate
Sun 06:21:00 AM 44.6646 160.9260 67° East  Level FlightAware Approximate
Sun 06:22:00 AM 44.7205 161.1154 67° East  Level FlightAware Approximate
Sun 06:23:00 AM 44.7760 161.3051 68° East  Level FlightAware Approximate
Sun 06:24:00 AM 44.8313 161.4952 68° East  Level FlightAware Approximate
Sun 06:25:00 AM 44.8862 161.6856 68° East  Level FlightAware Approximate
Sun 06:26:00 AM 44.9408 161.8764 68° East  Level FlightAware Approximate
Sun 06:27:00 AM 44.9951 162.0676 68° East  Level FlightAware Approximate
Sun 06:28:00 AM 45.0491 162.2592 68° East  Level FlightAware Approximate
Sun 06:29:00 AM 45.1027 162.4510 68° East  Level FlightAware Approximate
Sun 06:30:00 AM 45.1560 162.6433 68° East  Level FlightAware Approximate
Sun 06:31:00 AM 45.2090 162.8359 69° East  Level FlightAware Approximate
Sun 06:32:00 AM 45.2617 163.0289 69° East  Level FlightAware Approximate
Sun 06:33:00 AM 45.3141 163.2222 69° East  Level FlightAware Approximate
Sun 06:34:00 AM 45.3661 163.4159 69° East  Level FlightAware Approximate
Sun 06:35:00 AM 45.4178 163.6099 69° East  Level FlightAware Approximate
Sun 06:36:00 AM 45.4692 163.8043 69° East  Level FlightAware Approximate
Sun 06:37:00 AM 45.5202 163.9991 69° East  Level FlightAware Approximate
Sun 06:38:00 AM 45.5709 164.1942 70° East  Level FlightAware Approximate
Sun 06:39:00 AM 45.6213 164.3896 70° East  Level FlightAware Approximate
Sun 06:40:00 AM 45.6714 164.5854 70° East  Level FlightAware Approximate
Sun 06:40:23 AM 40.6167 167.6167 77° East 561 646 38,000  Level Oakland Oceanic (ODAPS)
Sun 06:41:00 AM 45.7211 164.7816 70° East  Level FlightAware Approximate
Sun 06:42:00 AM 45.7705 164.9781 70° East  Level FlightAware Approximate
Sun 06:43:00 AM 45.8195 165.1749 70° East  Level FlightAware Approximate
Sun 06:44:00 AM 45.8682 165.3721 70° East  Level FlightAware Approximate
Sun 06:45:00 AM 45.9165 165.5696 71° East  Level FlightAware Approximate
Sun 06:46:00 AM 40.8145 168.8049 78° East 561 646 38,000  Level FlightAware Transoceanic
Sun 06:47:00 AM 40.8462 169.0036 78° East 561 646 38,000  Level FlightAware Transoceanic
Sun 06:48:00 AM 40.8777 169.2025 78° East 561 646 38,000  Level FlightAware Transoceanic
Sun 06:49:00 AM 40.9088 169.4016 78° East 561 646 38,000  Level FlightAware Transoceanic
Sun 06:50:00 AM 40.9395 169.6009 79° East 561 646 38,000  Level FlightAware Transoceanic
Sun 06:51:00 AM 40.9699 169.8004 79° East 561 646 38,000  Level FlightAware Transoceanic
Sun 06:52:00 AM 41.0000 170.0000 72° East 561 646 38,000  Level FlightAware Transoceanic
Sun 06:52:20 AM 41.0000 170.0000 72° East 551 634 38,000  Level Oakland Oceanic (ODAPS)
Sun 06:53:00 AM 41.0465 170.1861 72° East 561 646 38,000  Level FlightAware Transoceanic
Sun 06:54:00 AM 41.0927 170.3725 72° East 561 646 38,000  Level FlightAware Transoceanic
Sun 06:54:15 AM 41.1000 170.3667 72° East 547 629 38,000  Level Oakland Oceanic (ODAPS)
Sun 06:55:00 AM 41.1385 170.5591 72° East 561 646 38,000  Level FlightAware Transoceanic
Sun 06:56:00 AM 41.1841 170.7460 72° East 561 646 38,000  Level FlightAware Transoceanic
Sun 06:57:00 AM 41.2294 170.9331 72° East 561 646 38,000  Level FlightAware Transoceanic
Sun 06:58:00 AM 41.2851 171.1655 72° East 551 634 38,000  Level FlightAware Transoceanic
Sun 06:59:00 AM 41.3315 171.3608 73° East 551 634 38,000  Level FlightAware Transoceanic
Sun 07:00:00 AM 41.3753 171.5141 73° East 547 629 38,000  Level FlightAware Transoceanic
Sun 07:01:00 AM 41.4200 171.7063 73° East 547 629 38,000  Level FlightAware Transoceanic
Sun 07:02:00 AM 41.4645 171.8987 73° East 547 629 38,000  Level FlightAware Transoceanic
Sun 07:03:00 AM 41.5086 172.0915 73° East 547 629 38,000  Level FlightAware Transoceanic
Sun 07:04:00 AM 41.5524 172.2844 73° East 547 629 38,000  Level FlightAware Transoceanic
Sun 07:05:00 AM 41.5959 172.4776 73° East 547 629 38,000  Level FlightAware Transoceanic
Sun 07:06:00 AM 41.6391 172.6711 73° East 547 629 38,000  Level FlightAware Transoceanic
Sun 07:07:00 AM 41.6819 172.8649 74° East 547 629 38,000  Level FlightAware Transoceanic
Sun 07:08:00 AM 41.7244 173.0589 74° East 547 629 38,000 896 Level FlightAware Transoceanic
Sun 07:08:07 AM 41.7167 173.0500 74° East 540 621 39,000  Climbing Oakland Oceanic (ODAPS)
Sun 07:09:00 AM 41.7666 173.2531 74° East 547 629 38,000 -531 Descending FlightAware Transoceanic
Sun 07:10:00 AM 41.8084 173.4477 74° East 547 629 38,000  Level FlightAware Transoceanic
Sun 07:11:00 AM 41.8499 173.6424 74° East 547 629 38,000  Level FlightAware Transoceanic
Sun 07:12:00 AM 41.8911 173.8374 74° East 547 629 38,000  Level FlightAware Transoceanic
Sun 07:13:00 AM 41.9320 174.0327 74° East 547 629 38,000 500 Level FlightAware Transoceanic
Sun 07:14:00 AM 41.9662 174.2207 74° East 540 621 39,000 500 Climbing FlightAware Transoceanic
Sun 07:15:00 AM 42.0066 174.4167 75° East 540 621 39,000  Level FlightAware Transoceanic
Sun 07:16:00 AM 42.0467 174.6130 75° East 540 621 39,000  Level FlightAware Transoceanic
Sun 07:17:00 AM 42.0865 174.8095 75° East 540 621 39,000  Level FlightAware Transoceanic
Sun 07:18:00 AM 42.1259 175.0062 75° East 540 621 39,000  Level FlightAware Transoceanic
Sun 07:19:00 AM 42.1650 175.2032 75° East 540 621 39,000  Level FlightAware Transoceanic
Sun 07:20:00 AM 42.2038 175.4004 75° East 540 621 39,000  Level FlightAware Transoceanic
Sun 07:21:00 AM 42.2422 175.5979 75° East 540 621 39,000  Level FlightAware Transoceanic
Sun 07:22:00 AM 42.2803 175.7956 75° East 540 621 39,000  Level FlightAware Transoceanic
Sun 07:22:01 AM 42.2667 175.7000 75° East 534 615 39,000  Level Oakland Oceanic (ODAPS)
Sun 07:23:00 AM 42.3180 175.9936 76° East 540 621 39,000  Level FlightAware Transoceanic
Sun 07:24:00 AM 42.3554 176.1918 76° East 540 621 39,000  Level FlightAware Transoceanic
Sun 07:25:00 AM 42.3924 176.3902 76° East 540 621 39,000  Level FlightAware Transoceanic
Sun 07:26:00 AM 42.4291 176.5888 76° East 540 621 39,000  Level FlightAware Transoceanic
Sun 07:27:00 AM 42.4655 176.7877 76° East 540 621 39,000  Level FlightAware Transoceanic
Sun 07:28:00 AM 42.4826 176.8625 76° East 534 615 39,000  Level FlightAware Transoceanic
Sun 07:29:00 AM 42.5174 177.0571 76° East 534 615 39,000  Level FlightAware Transoceanic
Sun 07:30:00 AM 42.5519 177.2518 77° East 534 615 39,000  Level FlightAware Transoceanic
Sun 07:31:00 AM 42.5861 177.4468 77° East 534 615 39,000  Level FlightAware Transoceanic
Sun 07:32:00 AM 42.6199 177.6419 77° East 534 615 39,000  Level FlightAware Transoceanic
Sun 07:33:00 AM 42.6534 177.8373 77° East 534 615 39,000  Level FlightAware Transoceanic
Sun 07:34:00 AM 42.6866 178.0329 77° East 534 615 39,000  Level FlightAware Transoceanic
Sun 07:35:00 AM 42.7195 178.2287 77° East 534 615 39,000  Level FlightAware Transoceanic
Sun 07:35:51 AM 42.7500 178.4000 77° East 530 610 39,000  Level Oakland Oceanic (ODAPS)
Sun 07:36:00 AM 42.7520 178.4247 77° East 534 615 39,000  Level FlightAware Transoceanic
Sun 07:37:00 AM 42.7842 178.6209 77° East 534 615 39,000  Level FlightAware Transoceanic
Sun 07:38:00 AM 42.8160 178.8174 78° East 534 615 39,000  Level FlightAware Transoceanic
Sun 07:39:00 AM 42.8475 179.0140 78° East 534 615 39,000  Level FlightAware Transoceanic
Sun 07:40:00 AM 42.8787 179.2108 78° East 534 615 39,000  Level FlightAware Transoceanic
Sun 07:41:00 AM 42.9095 179.4078 78° East 534 615 39,000  Level FlightAware Transoceanic
Sun 07:42:00 AM 42.9396 179.5988 78° East 530 610 39,000  Level FlightAware Transoceanic
Sun 07:43:00 AM 42.9700 179.7993 78° East 530 610 39,000  Level FlightAware Transoceanic
Sun 07:44:00 AM 43.0000 -180.0000 71° East 530 610 39,000  Level FlightAware Transoceanic
Sun 07:44:09 AM 43.0000 180.0000 71° East 532 612 39,000  Level Oakland Oceanic (ODAPS)
Sun 07:45:00 AM 43.0465 -179.8143 71° East 530 610 39,000  Level FlightAware Transoceanic
Sun 07:46:00 AM 43.0927 -179.6284 71° East 530 610 39,000  Level FlightAware Transoceanic
Sun 07:47:00 AM 43.1386 -179.4422 71° East 530 610 39,000  Level FlightAware Transoceanic
Sun 07:48:00 AM 43.1842 -179.2557 72° East 530 610 39,000  Level FlightAware Transoceanic
Sun 07:49:00 AM 43.2295 -179.0689 72° East 530 610 39,000  Level FlightAware Transoceanic
Sun 07:49:44 AM 43.2667 -178.9000 72° East 535 616 39,000  Level Oakland Oceanic (ODAPS)
Sun 07:50:00 AM 43.2853 -178.8369 72° East 532 612 39,000  Level FlightAware Transoceanic
Sun 07:51:00 AM 43.3317 -178.6421 72° East 532 612 39,000  Level FlightAware Transoceanic
Sun 07:52:00 AM 43.3777 -178.4469 72° East 532 612 39,000  Level FlightAware Transoceanic
Sun 07:53:00 AM 43.4235 -178.2514 72° East 532 612 39,000  Level FlightAware Transoceanic
Sun 07:54:00 AM 43.4689 -178.0556 72° East 532 612 39,000  Level FlightAware Transoceanic
Sun 07:55:00 AM 43.4979 -177.9159 72° East 535 616 39,000  Level FlightAware Transoceanic
Sun 07:56:00 AM 43.5432 -177.7182 73° East 535 616 39,000  Level FlightAware Transoceanic
Sun 07:57:00 AM 43.5880 -177.5202 73° East 535 616 39,000  Level FlightAware Transoceanic
Sun 07:58:00 AM 43.6326 -177.3219 73° East 535 616 39,000  Level FlightAware Transoceanic
Sun 07:59:00 AM 43.6768 -177.1233 73° East 535 616 39,000  Level FlightAware Transoceanic
Sun 08:00:00 AM 43.7207 -176.9244 73° East 535 616 39,000  Level FlightAware Transoceanic
Sun 08:01:00 AM 43.7642 -176.7252 73° East 535 616 39,000  Level FlightAware Transoceanic
Sun 08:02:00 AM 43.8073 -176.5257 73° East 535 616 39,000  Level FlightAware Transoceanic
Sun 08:03:00 AM 43.8502 -176.3259 74° East 535 616 39,000  Level FlightAware Transoceanic
Sun 08:03:35 AM 43.8833 -176.1667 74° East 533 613 39,000  Level Oakland Oceanic (ODAPS)
Sun 08:04:00 AM 43.8926 -176.1259 74° East 535 616 39,000  Level FlightAware Transoceanic
Sun 08:05:00 AM 43.9348 -175.9256 74° East 535 616 39,000  Level FlightAware Transoceanic
Sun 08:06:00 AM 43.9765 -175.7250 74° East 535 616 39,000  Level FlightAware Transoceanic
Sun 08:07:00 AM 44.0180 -175.5241 74° East 535 616 39,000  Level FlightAware Transoceanic
Sun 08:08:00 AM 44.0590 -175.3229 74° East 535 616 39,000  Level FlightAware Transoceanic
Sun 08:09:00 AM 44.1252 -174.9919 74° East 533 613 39,000  Level FlightAware Transoceanic
Sun 08:10:00 AM 44.1643 -174.7952 75° East 533 613 39,000  Level FlightAware Transoceanic
Sun 08:11:00 AM 44.2031 -174.5983 75° East 533 613 39,000  Level FlightAware Transoceanic
Sun 08:12:00 AM 44.2415 -174.4010 75° East 533 613 39,000  Level FlightAware Transoceanic
Sun 08:13:00 AM 44.2797 -174.2035 75° East 533 613 39,000  Level FlightAware Transoceanic
Sun 08:14:00 AM 44.3174 -174.0058 75° East 533 613 39,000  Level FlightAware Transoceanic
Sun 08:15:00 AM 44.3549 -173.8078 75° East 533 613 39,000  Level FlightAware Transoceanic
Sun 08:16:00 AM 44.3919 -173.6095 75° East 533 613 39,000  Level FlightAware Transoceanic
Sun 08:17:00 AM 44.4287 -173.4110 76° East 533 613 39,000  Level FlightAware Transoceanic
Sun 08:17:27 AM 44.4167 -173.4500 75° East 514 592 39,000  Level Oakland Oceanic (ODAPS)
Sun 08:18:00 AM 44.4651 -173.2123 76° East 533 613 39,000  Level FlightAware Transoceanic
Sun 08:19:00 AM 44.5011 -173.0133 76° East 533 613 39,000  Level FlightAware Transoceanic
Sun 08:20:00 AM 44.5368 -172.8141 76° East 533 613 39,000  Level FlightAware Transoceanic
Sun 08:21:00 AM 44.5722 -172.6146 76° East 533 613 39,000  Level FlightAware Transoceanic
Sun 08:22:00 AM 44.6072 -172.4149 76° East 533 613 39,000  Level FlightAware Transoceanic
Sun 08:23:00 AM 44.6226 -172.3078 76° East 514 592 39,000  Level FlightAware Transoceanic
Sun 08:24:00 AM 44.6558 -172.1166 76° East 514 592 39,000  Level FlightAware Transoceanic
Sun 08:25:00 AM 44.6887 -171.9253 76° East 514 592 39,000  Level FlightAware Transoceanic
Sun 08:26:00 AM 44.7213 -171.7337 77° East 514 592 39,000  Level FlightAware Transoceanic
Sun 08:27:00 AM 44.7536 -171.5419 77° East 514 592 39,000  Level FlightAware Transoceanic
Sun 08:28:00 AM 44.7855 -171.3499 77° East 514 592 39,000  Level FlightAware Transoceanic
Sun 08:29:00 AM 44.8171 -171.1577 77° East 514 592 39,000  Level FlightAware Transoceanic
Sun 08:30:00 AM 44.8484 -170.9652 77° East 514 592 39,000  Level FlightAware Transoceanic
Sun 08:31:00 AM 44.8794 -170.7726 77° East 514 592 39,000  Level FlightAware Transoceanic
Sun 08:31:19 AM 44.8833 -170.7500 77° East 523 602 39,000  Level Oakland Oceanic (ODAPS)
Sun 08:32:00 AM 44.9100 -170.5798 77° East 514 592 39,000  Level FlightAware Transoceanic
Sun 08:33:00 AM 44.9403 -170.3867 78° East 514 592 39,000  Level FlightAware Transoceanic
Sun 08:34:00 AM 44.9703 -170.1935 78° East 514 592 39,000  Level FlightAware Transoceanic
Sun 08:35:00 AM 45.0000 -170.0000 78° East 514 592 39,000  Level FlightAware Transoceanic
Sun 08:35:05 AM 45.0000 -170.0000 78° East 522 601 39,000  Level Oakland Oceanic (ODAPS)
Sun 08:36:00 AM 45.0290 -169.7999 78° East 514 592 39,000  Level FlightAware Transoceanic
Sun 08:37:00 AM 45.0577 -169.5996 79° East 523 602 39,000  Level FlightAware Transoceanic
Sun 08:38:00 AM 45.0860 -169.3992 79° East 523 602 39,000  Level FlightAware Transoceanic
Sun 08:39:00 AM 45.1140 -169.1985 79° East 523 602 39,000  Level FlightAware Transoceanic
Sun 08:40:00 AM 45.1417 -168.9976 79° East 523 602 39,000  Level FlightAware Transoceanic
Sun 08:41:00 AM 45.1689 -168.7965 79° East 522 601 39,000  Level FlightAware Transoceanic
Sun 08:42:00 AM 45.1959 -168.5953 79° East 522 601 39,000  Level FlightAware Transoceanic
Sun 08:43:00 AM 45.2224 -168.3938 79° East 522 601 39,000  Level FlightAware Transoceanic
Sun 08:44:00 AM 45.2486 -168.1922 80° East 522 601 39,000  Level FlightAware Transoceanic
Sun 08:45:00 AM 45.2745 -167.9904 80° East 522 601 39,000  Level FlightAware Transoceanic
Sun 08:45:11 AM 45.2833 -167.9333 80° East 528 608 39,000  Level Oakland Oceanic (ODAPS)
Sun 08:46:00 AM 45.3000 -167.7883 80° East 522 601 39,000  Level FlightAware Transoceanic
Sun 08:47:00 AM 45.3252 -167.5862 80° East 522 601 39,000  Level FlightAware Transoceanic
Sun 08:48:00 AM 45.3499 -167.3838 80° East 522 601 39,000  Level FlightAware Transoceanic
Sun 08:49:00 AM 45.3744 -167.1812 80° East 522 601 39,000  Level FlightAware Transoceanic
Sun 08:50:00 AM 45.3985 -166.9785 80° East 522 601 39,000  Level FlightAware Transoceanic
Sun 08:51:00 AM 45.4328 -166.6953 81° East 528 608 39,000  Level FlightAware Transoceanic
Sun 08:52:00 AM 45.4564 -166.4883 81° East 528 608 39,000  Level FlightAware Transoceanic
Sun 08:53:00 AM 45.4796 -166.2812 81° East 528 608 39,000  Level FlightAware Transoceanic
Sun 08:54:00 AM 45.5025 -166.0739 81° East 528 608 39,000  Level FlightAware Transoceanic
Sun 08:55:00 AM 45.5250 -165.8664 81° East 528 608 39,000  Level FlightAware Transoceanic
Sun 08:56:00 AM 45.5471 -165.6588 81° East 528 608 39,000  Level FlightAware Transoceanic
Sun 08:57:00 AM 45.5688 -165.4510 82° East 528 608 39,000  Level FlightAware Transoceanic
Sun 08:58:00 AM 45.5902 -165.2430 82° East 528 608 39,000  Level FlightAware Transoceanic
Sun 08:59:00 AM 45.6111 -165.0349 82° East 528 608 39,000  Level FlightAware Transoceanic
Sun 08:59:03 AM 45.6000 -165.1333 82° East 522 601 39,000  Level Oakland Oceanic (ODAPS)
Sun 09:00:00 AM 45.6317 -164.8266 82° East 528 608 39,000  Level FlightAware Transoceanic
Sun 09:01:00 AM 45.6520 -164.6182 82° East 528 608 39,000  Level FlightAware Transoceanic
Sun 09:02:00 AM 45.6718 -164.4097 82° East 528 608 39,000  Level FlightAware Transoceanic
Sun 09:03:00 AM 45.6913 -164.2009 82° East 528 608 39,000  Level FlightAware Transoceanic
Sun 09:04:00 AM 45.7104 -163.9921 83° East 528 608 39,000  Level FlightAware Transoceanic
Sun 09:05:00 AM 45.7169 -163.9084 83° East 522 601 39,000  Level FlightAware Transoceanic
Sun 09:06:00 AM 45.7351 -163.7037 83° East 522 601 39,000  Level FlightAware Transoceanic
Sun 09:07:00 AM 45.7530 -163.4989 83° East 522 601 39,000  Level FlightAware Transoceanic
Sun 09:08:00 AM 45.7705 -163.2941 83° East 522 601 39,000  Level FlightAware Transoceanic
Sun 09:09:00 AM 45.7876 -163.0890 83° East 522 601 39,000  Level FlightAware Transoceanic
Sun 09:10:00 AM 45.8043 -162.8839 83° East 522 601 39,000  Level FlightAware Transoceanic
Sun 09:11:00 AM 45.8207 -162.6786 84° East 522 601 39,000  Level FlightAware Transoceanic
Sun 09:12:00 AM 45.8367 -162.4732 84° East 522 601 39,000  Level FlightAware Transoceanic
Sun 09:12:55 AM 45.8500 -162.2833 84° East 525 604 39,000  Level Oakland Oceanic (ODAPS)
Sun 09:13:00 AM 45.8523 -162.2677 84° East 522 601 39,000  Level FlightAware Transoceanic
Sun 09:14:00 AM 45.8676 -162.0620 84° East 522 601 39,000  Level FlightAware Transoceanic
Sun 09:15:00 AM 45.8825 -161.8563 84° East 522 601 39,000  Level FlightAware Transoceanic
Sun 09:16:00 AM 45.8971 -161.6504 84° East 522 601 39,000  Level FlightAware Transoceanic
Sun 09:17:00 AM 45.9112 -161.4445 84° East 522 601 39,000  Level FlightAware Transoceanic
Sun 09:18:00 AM 45.9250 -161.2384 85° East 522 601 39,000  Level FlightAware Transoceanic
Sun 09:19:00 AM 45.9375 -161.0394 85° East 525 604 39,000  Level FlightAware Transoceanic
Sun 09:20:00 AM 45.9507 -160.8317 85° East 525 604 39,000  Level FlightAware Transoceanic
Sun 09:21:00 AM 45.9636 -160.6239 85° East 525 604 39,000  Level FlightAware Transoceanic
Sun 09:22:00 AM 45.9761 -160.4160 85° East 525 604 39,000  Level FlightAware Transoceanic
Sun 09:23:00 AM 45.9883 -160.2081 85° East 525 604 39,000  Level FlightAware Transoceanic
Sun 09:24:00 AM 46.0000 -160.0000 78° East 525 604 39,000  Level FlightAware Transoceanic
Sun 09:24:10 AM 46.0000 -160.0000 78° East 542 624 39,000  Level Oakland Oceanic (ODAPS)
Sun 09:25:00 AM 46.0316 -159.7823 78° East 525 604 39,000  Level FlightAware Transoceanic
Sun 09:26:00 AM 46.0628 -159.5643 78° East 525 604 39,000  Level FlightAware Transoceanic
Sun 09:26:49 AM 46.0833 -159.4500 79° East 544 626 39,000  Level Oakland Oceanic (ODAPS)
Sun 09:27:00 AM 46.0935 -159.3461 79° East 525 604 39,000  Level FlightAware Transoceanic
Sun 09:28:00 AM 46.1238 -159.1276 79° East 525 604 39,000  Level FlightAware Transoceanic
Sun 09:29:00 AM 46.1538 -158.9089 79° East 525 604 39,000  Level FlightAware Transoceanic
Sun 09:30:00 AM 46.1794 -158.7186 79° East 542 624 39,000  Level FlightAware Transoceanic
Sun 09:31:00 AM 46.2080 -158.5042 79° East 542 624 39,000  Level FlightAware Transoceanic
Sun 09:32:00 AM 46.2361 -158.2896 79° East 542 624 39,000  Level FlightAware Transoceanic
Sun 09:33:00 AM 46.2576 -158.1524 79° East 544 626 39,000  Level FlightAware Transoceanic
Sun 09:34:00 AM 46.2852 -157.9353 80° East 544 626 39,000  Level FlightAware Transoceanic
Sun 09:35:00 AM 46.3124 -157.7180 80° East 544 626 39,000  Level FlightAware Transoceanic
Sun 09:36:00 AM 46.3392 -157.5005 80° East 544 626 39,000  Level FlightAware Transoceanic
Sun 09:37:00 AM 46.3656 -157.2828 80° East 544 626 39,000  Level FlightAware Transoceanic
Sun 09:38:00 AM 46.3916 -157.0649 80° East 544 626 39,000  Level FlightAware Transoceanic
Sun 09:39:00 AM 46.4171 -156.8468 80° East 544 626 39,000  Level FlightAware Transoceanic
Sun 09:40:00 AM 46.4422 -156.6285 81° East 544 626 39,000 606 Level FlightAware Transoceanic
Sun 09:40:39 AM 46.4500 -156.5167 81° East 547 629 40,000  Climbing Oakland Oceanic (ODAPS)
Sun 09:41:00 AM 46.4670 -156.4099 81° East 544 626 39,000 -741 Descending FlightAware Transoceanic
Sun 09:42:00 AM 46.4913 -156.1912 81° East 544 626 39,000  Level FlightAware Transoceanic
Sun 09:43:00 AM 46.5151 -155.9723 81° East 544 626 39,000  Level FlightAware Transoceanic
Sun 09:44:00 AM 46.5386 -155.7532 81° East 544 626 39,000  Level FlightAware Transoceanic
Sun 09:45:00 AM 46.5617 -155.5339 81° East 544 626 39,000 500 Level FlightAware Transoceanic
Sun 09:46:00 AM 46.5895 -155.2246 82° East 547 629 40,000 500 Climbing FlightAware Transoceanic
Sun 09:47:00 AM 46.6113 -155.0087 82° East 547 629 40,000  Level FlightAware Transoceanic
Sun 09:48:00 AM 46.6327 -154.7925 82° East 547 629 40,000  Level FlightAware Transoceanic
Sun 09:49:00 AM 46.6538 -154.5762 82° East 547 629 40,000  Level FlightAware Transoceanic
Sun 09:50:00 AM 46.6744 -154.3597 82° East 547 629 40,000  Level FlightAware Transoceanic
Sun 09:51:00 AM 46.6946 -154.1431 82° East 547 629 40,000  Level FlightAware Transoceanic
Sun 09:52:00 AM 46.7144 -153.9263 82° East 547 629 40,000  Level FlightAware Transoceanic
Sun 09:53:00 AM 46.7337 -153.7093 83° East 547 629 40,000  Level FlightAware Transoceanic
Sun 09:54:00 AM 46.7527 -153.4922 83° East 547 629 40,000  Level FlightAware Transoceanic
Sun 09:54:31 AM 46.7500 -153.5167 83° East 559 643 40,000  Level Oakland Oceanic (ODAPS)
Sun 09:55:00 AM 46.7713 -153.2750 83° East 547 629 40,000  Level FlightAware Transoceanic
Sun 09:56:00 AM 46.7894 -153.0576 83° East 547 629 40,000  Level FlightAware Transoceanic
Sun 09:57:00 AM 46.8072 -152.8400 83° East 547 629 40,000  Level FlightAware Transoceanic
Sun 09:58:00 AM 46.8245 -152.6223 83° East 547 629 40,000  Level FlightAware Transoceanic
Sun 09:59:00 AM 46.8414 -152.4044 84° East 547 629 40,000  Level FlightAware Transoceanic
Sun 10:00:00 AM 46.8564 -152.2018 84° East 559 643 40,000  Level FlightAware Transoceanic
Sun 10:01:00 AM 46.8726 -151.9822 84° East 559 643 40,000  Level FlightAware Transoceanic
Sun 10:02:00 AM 46.8885 -151.7624 84° East 559 643 40,000  Level FlightAware Transoceanic
Sun 10:03:00 AM 46.9039 -151.5425 84° East 559 643 40,000  Level FlightAware Transoceanic
Sun 10:04:00 AM 46.9189 -151.3225 84° East 559 643 40,000  Level FlightAware Transoceanic
Sun 10:05:00 AM 46.9335 -151.1024 85° East 559 643 40,000  Level FlightAware Transoceanic
Sun 10:06:00 AM 46.9476 -150.8821 85° East 559 643 40,000  Level FlightAware Transoceanic
Sun 10:07:00 AM 46.9613 -150.6618 85° East 559 643 40,000  Level FlightAware Transoceanic
Sun 10:08:00 AM 46.9747 -150.4413 85° East 559 643 40,000  Level FlightAware Transoceanic
Sun 10:08:23 AM 46.9833 -150.3667 86° East 566 651 40,000  Level Oakland Oceanic (ODAPS)
Sun 10:09:00 AM 46.9875 -150.2207 85° East 559 643 40,000  Level FlightAware Transoceanic
Sun 10:10:00 AM 47.0000 -150.0000 95° East 559 643 40,000  Level FlightAware Transoceanic
Sun 10:10:01 AM 47.0000 -150.0000 95° East 569 655 40,000  Level Oakland Oceanic (ODAPS)
Sun 10:11:00 AM 46.9868 -149.7638 95° East 559 643 40,000  Level FlightAware Transoceanic
Sun 10:12:00 AM 46.9730 -149.5277 95° East 559 643 40,000  Level FlightAware Transoceanic
Sun 10:13:00 AM 46.9588 -149.2918 95° East 559 643 40,000  Level FlightAware Transoceanic
Sun 10:14:00 AM 46.9441 -149.0560 95° East 566 651 40,000  Level FlightAware Transoceanic
Sun 10:15:00 AM 46.9289 -148.8203 95° East 566 651 40,000  Level FlightAware Transoceanic
Sun 10:16:00 AM 46.9154 -148.6168 96° East 569 655 40,000  Level FlightAware Transoceanic
Sun 10:17:00 AM 46.8997 -148.3867 96° East 569 655 40,000  Level FlightAware Transoceanic
Sun 10:18:00 AM 46.8835 -148.1568 96° East 569 655 40,000  Level FlightAware Transoceanic
Sun 10:19:00 AM 46.8669 -147.9270 96° East 569 655 40,000  Level FlightAware Transoceanic
Sun 10:20:00 AM 46.8498 -147.6973 96° East 569 655 40,000  Level FlightAware Transoceanic
Sun 10:21:00 AM 46.8322 -147.4678 96° East 569 655 40,000  Level FlightAware Transoceanic
Sun 10:22:00 AM 46.8142 -147.2384 97° East 569 655 40,000  Level FlightAware Transoceanic
Sun 10:22:15 AM 46.8167 -147.1833 97° East 577 664 40,000  Level Oakland Oceanic (ODAPS)
Sun 10:23:00 AM 46.7958 -147.0092 97° East 569 655 40,000  Level FlightAware Transoceanic
Sun 10:24:00 AM 46.7769 -146.7802 97° East 569 655 40,000  Level FlightAware Transoceanic
Sun 10:25:00 AM 46.7575 -146.5513 97° East 569 655 40,000  Level FlightAware Transoceanic
Sun 10:26:00 AM 46.7376 -146.3225 97° East 569 655 40,000  Level FlightAware Transoceanic
Sun 10:27:00 AM 46.7173 -146.0940 97° East 569 655 40,000  Level FlightAware Transoceanic
Sun 10:28:00 AM 46.6939 -145.7771 98° East 577 664 40,000  Level FlightAware Transoceanic
Sun 10:29:00 AM 46.6718 -145.5433 98° East 577 664 40,000  Level FlightAware Transoceanic
Sun 10:30:00 AM 46.6492 -145.3098 98° East 577 664 40,000  Level FlightAware Transoceanic
Sun 10:31:00 AM 46.6261 -145.0764 98° East 577 664 40,000  Level FlightAware Transoceanic
Sun 10:32:00 AM 46.6026 -144.8433 98° East 577 664 40,000  Level FlightAware Transoceanic
Sun 10:33:00 AM 46.5785 -144.6104 99° East 577 664 40,000  Level FlightAware Transoceanic
Sun 10:34:00 AM 46.5540 -144.3776 99° East 577 664 40,000  Level FlightAware Transoceanic
Sun 10:35:00 AM 46.5291 -144.1451 99° East 577 664 40,000  Level FlightAware Transoceanic
Sun 10:36:00 AM 46.5036 -143.9128 99° East 577 664 40,000  Level FlightAware Transoceanic
Sun 10:36:07 AM 46.5167 -144.0167 99° East 577 664 40,000  Level Oakland Oceanic (ODAPS)
Sun 10:37:00 AM 46.4777 -143.6807 99° East 577 664 40,000  Level FlightAware Transoceanic
Sun 10:38:00 AM 46.4513 -143.4488 99° East 577 664 40,000  Level FlightAware Transoceanic
Sun 10:39:00 AM 46.4245 -143.2172 100° East 577 664 40,000  Level FlightAware Transoceanic
Sun 10:40:00 AM 46.3972 -142.9858 100° East 577 664 40,000  Level FlightAware Transoceanic
Sun 10:41:00 AM 46.3694 -142.7546 100° East 577 664 40,000  Level FlightAware Transoceanic
Sun 10:42:00 AM 46.3601 -142.6695 100° East 577 664 40,000  Level FlightAware Transoceanic
Sun 10:43:00 AM 46.3325 -142.4457 100° East 577 664 40,000  Level FlightAware Transoceanic
Sun 10:44:00 AM 46.3044 -142.2222 100° East 577 664 40,000  Level FlightAware Transoceanic
Sun 10:45:00 AM 46.2759 -141.9989 101° East 577 664 40,000  Level FlightAware Transoceanic
Sun 10:46:00 AM 46.2470 -141.7758 101° East 577 664 40,000  Level FlightAware Transoceanic
Sun 10:47:00 AM 46.2176 -141.5530 101° East 577 664 40,000  Level FlightAware Transoceanic
Sun 10:48:00 AM 46.1878 -141.3304 101° East 577 664 40,000  Level FlightAware Transoceanic
Sun 10:49:00 AM 46.1576 -141.1080 101° East 577 664 40,000  Level FlightAware Transoceanic
Sun 10:49:59 AM 46.1167 -140.8500 101° East 580 667 40,000  Level Oakland Oceanic (ODAPS)
Sun 10:50:00 AM 46.1269 -140.8859 101° East 577 664 40,000  Level FlightAware Transoceanic
Sun 10:51:00 AM 46.0958 -140.6640 102° East 577 664 40,000  Level FlightAware Transoceanic
Sun 10:52:00 AM 46.0643 -140.4424 102° East 577 664 40,000  Level FlightAware Transoceanic
Sun 10:53:00 AM 46.0324 -140.2211 102° East 577 664 40,000  Level FlightAware Transoceanic
Sun 10:53:43 AM 46.0000 -140.0000 116° Southeast 569 655 40,000  Level Oakland Oceanic (ODAPS)
Sun 10:54:00 AM 46.0000 -140.0000 116° Southeast 577 664 40,000  Level FlightAware Transoceanic
Sun 10:55:00 AM 45.9303 -139.7908 116° Southeast 577 664 40,000  Level FlightAware Transoceanic
Sun 10:56:00 AM 45.8603 -139.5822 116° Southeast 580 667 40,000  Level FlightAware Transoceanic
Sun 10:57:00 AM 45.7898 -139.3741 116° Southeast 580 667 40,000  Level FlightAware Transoceanic
Sun 10:58:00 AM 45.7190 -139.1665 116° Southeast 580 667 40,000  Level FlightAware Transoceanic
Sun 10:59:00 AM 45.6547 -138.9794 116° Southeast 569 655 40,000  Level FlightAware Transoceanic
Sun 11:00:00 AM 45.5846 -138.7768 116° Southeast 569 655 40,000  Level FlightAware Transoceanic
Sun 11:01:00 AM 45.5141 -138.5747 117° Southeast 569 655 40,000  Level FlightAware Transoceanic
Sun 11:02:00 AM 45.4432 -138.3731 117° Southeast 569 655 40,000  Level FlightAware Transoceanic
Sun 11:03:00 AM 45.3720 -138.1720 117° Southeast 569 655 40,000  Level FlightAware Transoceanic
Sun 11:03:51 AM 45.2833 -137.9000 117° Southeast 567 652 40,000  Level Oakland Oceanic (ODAPS)
Sun 11:04:00 AM 45.3004 -137.9714 117° Southeast 569 655 40,000  Level FlightAware Transoceanic
Sun 11:05:00 AM 45.2285 -137.7713 117° Southeast 569 655 40,000  Level FlightAware Transoceanic
Sun 11:06:00 AM 45.1563 -137.5718 117° Southeast 569 655 40,000  Level FlightAware Transoceanic
Sun 11:07:00 AM 45.0837 -137.3727 117° Southeast 569 655 40,000  Level FlightAware Transoceanic
Sun 11:08:00 AM 45.0107 -137.1742 118° Southeast 569 655 40,000  Level FlightAware Transoceanic
Sun 11:09:00 AM 44.9374 -136.9761 118° Southeast 569 655 40,000  Level FlightAware Transoceanic
Sun 11:10:00 AM 44.8485 -136.7182 118° Southeast 567 652 40,000  Level FlightAware Transoceanic
Sun 11:11:00 AM 44.7748 -136.5229 118° Southeast 567 652 40,000  Level FlightAware Transoceanic
Sun 11:12:00 AM 44.7009 -136.3282 118° Southeast 567 652 40,000  Level FlightAware Transoceanic
Sun 11:13:00 AM 44.6265 -136.1340 118° Southeast 567 652 40,000  Level FlightAware Transoceanic
Sun 11:14:00 AM 44.5519 -135.9402 118° Southeast 567 652 40,000  Level FlightAware Transoceanic
Sun 11:15:00 AM 44.4769 -135.7470 119° Southeast 567 652 40,000  Level FlightAware Transoceanic
Sun 11:16:00 AM 44.4016 -135.5542 119° Southeast 567 652 40,000  Level FlightAware Transoceanic
Sun 11:17:00 AM 44.3260 -135.3620 119° Southeast 567 652 40,000  Level FlightAware Transoceanic
Sun 11:17:43 AM 44.2500 -135.1667 119° Southeast 568 654 40,000  Level Oakland Oceanic (ODAPS)
Sun 11:18:00 AM 44.2501 -135.1703 119° Southeast 567 652 40,000  Level FlightAware Transoceanic
Sun 11:19:00 AM 44.1738 -134.9790 119° Southeast 567 652 40,000  Level FlightAware Transoceanic
Sun 11:20:00 AM 44.0973 -134.7882 119° Southeast 567 652 40,000  Level FlightAware Transoceanic
Sun 11:21:00 AM 44.0204 -134.5980 119° Southeast 567 652 40,000  Level FlightAware Transoceanic
Sun 11:22:00 AM 43.9432 -134.4082 120° Southeast 567 652 40,000  Level FlightAware Transoceanic
Sun 11:23:00 AM 43.8657 -134.2189 120° Southeast 567 652 40,000  Level FlightAware Transoceanic
Sun 11:24:00 AM 43.7704 -133.9855 120° Southeast 568 654 40,000  Level FlightAware Transoceanic
Sun 11:25:00 AM 43.6893 -133.7905 120° Southeast 568 654 40,000  Level FlightAware Transoceanic
Sun 11:26:00 AM 43.6078 -133.5960 120° Southeast 568 654 40,000  Level FlightAware Transoceanic
Sun 11:27:00 AM 43.5261 -133.4021 120° Southeast 568 654 40,000  Level FlightAware Transoceanic
Sun 11:28:00 AM 43.4440 -133.2086 120° Southeast 568 654 40,000  Level FlightAware Transoceanic
Sun 11:29:00 AM 43.3615 -133.0157 121° Southeast 568 654 40,000  Level FlightAware Transoceanic
Sun 11:30:00 AM 43.2788 -132.8234 121° Southeast 568 654 40,000  Level FlightAware Transoceanic
Sun 11:31:00 AM 43.1957 -132.6315 121° Southeast 568 654 40,000  Level FlightAware Transoceanic
Sun 11:31:35 AM 43.1500 -132.5500 121° Southeast 561 646 40,000  Level Oakland Oceanic (ODAPS)
Sun 11:32:00 AM 43.1123 -132.4402 121° Southeast 568 654 40,000  Level FlightAware Transoceanic
Sun 11:33:00 AM 43.0286 -132.2494 121° Southeast 568 654 40,000  Level FlightAware Transoceanic
Sun 11:34:00 AM 42.9446 -132.0591 121° Southeast 568 654 40,000  Level FlightAware Transoceanic
Sun 11:35:00 AM 42.8603 -131.8693 121° Southeast 568 654 40,000  Level FlightAware Transoceanic
Sun 11:36:00 AM 42.7756 -131.6801 121° Southeast 568 654 40,000  Level FlightAware Transoceanic
Sun 11:37:00 AM 42.6907 -131.4913 122° Southeast 568 654 40,000  Level FlightAware Transoceanic
Sun 11:38:00 AM 42.6204 -131.3483 121° Southeast 561 646 40,000  Level FlightAware Transoceanic
Sun 11:39:00 AM 42.5437 -131.1783 122° Southeast 561 646 40,000  Level FlightAware Transoceanic
Sun 11:40:00 AM 42.4668 -131.0087 122° Southeast 561 646 40,000  Level FlightAware Transoceanic
Sun 11:41:00 AM 42.3896 -130.8396 122° Southeast 561 646 40,000  Level FlightAware Transoceanic
Sun 11:42:00 AM 42.3122 -130.6708 122° Southeast 561 646 40,000  Level FlightAware Transoceanic
Sun 11:43:00 AM 42.2345 -130.5025 122° Southeast 561 646 40,000  Level FlightAware Transoceanic
Sun 11:44:00 AM 42.1566 -130.3346 122° Southeast 561 646 40,000  Level FlightAware Transoceanic
Sun 11:45:00 AM 42.0784 -130.1671 122° Southeast 561 646 40,000 690 Level FlightAware Transoceanic
Sun 11:45:27 AM 42.0333 -130.0667 124° Southeast 530 610 41,000 1,132 Climbing Oakland Oceanic (ODAPS)
Sun 11:45:53 AM 42.0000 -130.0000 120° Southeast 550 633 41,000 -1,818 Level Oakland Oceanic (ODAPS)
Sun 11:46:00 AM 42.0000 -130.0000 120° Southeast 561 646 40,000 -896 Descending FlightAware Transoceanic
Sun 11:47:00 AM 41.9218 -129.8200 120° Southeast 561 646 40,000  Level FlightAware Transoceanic
Sun 11:48:00 AM 41.8433 -129.6405 120° Southeast 561 646 40,000  Level FlightAware Transoceanic
Sun 11:49:00 AM 41.7645 -129.4614 121° Southeast 561 646 40,000  Level FlightAware Transoceanic
Sun 11:50:00 AM 41.6855 -129.2828 121° Southeast 561 646 40,000 500 Level FlightAware Transoceanic
Sun 11:51:00 AM 41.6062 -129.1046 121° Southeast 530 610 41,000 500 Climbing FlightAware Transoceanic
Sun 11:52:00 AM 41.5266 -128.9268 121° Southeast 550 633 41,000  Level FlightAware Transoceanic
Sun 11:53:00 AM 41.4467 -128.7495 121° Southeast 550 633 41,000  Level FlightAware Transoceanic
Sun 11:54:00 AM 41.3666 -128.5726 121° Southeast 550 633 41,000  Level FlightAware Transoceanic
Sun 11:55:00 AM 41.2862 -128.3961 121° Southeast 550 633 41,000  Level FlightAware Transoceanic
Sun 11:56:00 AM 41.2055 -128.2201 121° Southeast 550 633 41,000  Level FlightAware Transoceanic
Sun 11:57:00 AM 41.1245 -128.0445 122° Southeast 550 633 41,000  Level FlightAware Transoceanic
Sun 11:58:00 AM 41.0433 -127.8693 122° Southeast 550 633 41,000  Level FlightAware Transoceanic
Sun 11:59:00 AM 40.9618 -127.6946 122° Southeast 550 633 41,000  Level FlightAware Transoceanic
Sun 11:59:20 AM 40.9500 -127.6833 121° Southeast 535 616 41,000  Level Oakland Oceanic (ODAPS)
Sun 12:00:00 PM 40.8801 -127.5203 122° Southeast 550 633 41,000 -74 Level FlightAware Transoceanic
Sun 12:00:41 PM 40.8289 -127.4628 118° Southeast 539 620 40,900  Descending Oakland Center
Sun 12:01:00 PM 40.7981 -127.3464 122° Southeast 550 633 41,000  Climbing FlightAware Transoceanic
Sun 12:01:43 PM 40.7500 -127.2969 122° Southeast 537 618 40,900  Descending Oakland Center
Sun 12:02:00 PM 40.7159 -127.1730 122° Southeast 550 633 41,000 353 Climbing FlightAware Transoceanic
Sun 12:02:00 PM 40.7833 -127.3333 121° Southeast 523 602 41,000 -136 Level Oakland Oceanic (ODAPS)
Sun 12:02:44 PM 40.6642 -127.1411 121° Southeast 531 611 40,900  Descending Oakland Center
Sun 12:03:00 PM 40.6333 -127.0000 118° Southeast 550 633 41,000 98 Climbing FlightAware Transoceanic
Sun 12:03:45 PM 40.5669 -126.9914 130° Southeast 530 610 41,000  Level Oakland Center
Sun 12:04:00 PM 40.5640 -126.8266 118° Southeast 550 633 41,000  Level FlightAware Transoceanic
Sun 12:04:46 PM 40.4514 -126.8106 130° Southeast 535 616 41,000  Level Oakland Center
Sun 12:05:00 PM 40.4944 -126.6535 118° Southeast 535 616 41,000 -97 Level FlightAware Transoceanic
Sun 12:05:48 PM 40.3517 -126.6594 131° Southeast 542 624 40,900  Descending Oakland Center
Sun 12:06:00 PM 40.4246 -126.4807 118° Southeast 535 616 41,000 98 Climbing FlightAware Transoceanic
Sun 12:06:49 PM 40.2575 -126.5067 129° Southeast 542 624 41,000  Level Oakland Center
Sun 12:07:50 PM 40.1614 -126.3556 130° Southeast 543 625 41,000 -49 Level Oakland Center
Sun 12:08:51 PM 40.0631 -126.2036 130° Southeast 547 629 40,900  Descending Oakland Center
Sun 12:09:52 PM 39.9664 -126.0525 130° Southeast 546 628 41,000 49 Climbing Oakland Center
Sun 12:10:54 PM 39.8700 -125.9017 130° Southeast 545 627 41,000  Level Oakland Center
Sun 12:11:55 PM 39.7719 -125.7528 131° Southeast 545 627 41,000  Level Oakland Center
Sun 12:12:56 PM 39.6750 -125.6042 130° Southeast 543 625 41,000 -49 Level Oakland Center
Sun 12:13:57 PM 39.5586 -125.4256 130° Southeast 543 625 40,900 -49 Descending Oakland Center
Sun 12:14:58 PM 39.4614 -125.2800 131° Southeast 540 621 40,900  Level Oakland Center
Sun 12:15:59 PM 39.3675 -125.1372 130° Southeast 539 620 40,900 49 Level Oakland Center
Sun 12:17:01 PM 39.2694 -124.9911 131° Southeast 540 621 41,000 49 Climbing Oakland Center
Sun 12:18:02 PM 39.1719 -124.8439 130° Southeast 541 623 41,000 -49 Level Oakland Center
Sun 12:19:03 PM 39.0717 -124.6944 131° Southeast 542 624 40,900 -49 Descending Oakland Center
Sun 12:20:04 PM 38.9756 -124.5517 131° Southeast 541 623 40,900 49 Level Oakland Center
Sun 12:21:05 PM 38.8756 -124.4058 131° Southeast 538 619 41,000 49 Climbing Oakland Center
Sun 12:22:07 PM 38.7783 -124.2614 131° Southeast 537 618 41,000 -49 Level Oakland Center
Sun 12:23:08 PM 38.6622 -124.0922 131° Southeast 534 615 40,900 -49 Descending Oakland Center
Sun 12:24:09 PM 38.5633 -123.9508 132° Southeast 534 615 40,900  Level Oakland Center
Sun 12:25:10 PM 38.4647 -123.8106 132° Southeast 534 615 40,900  Level Oakland Center
Sun 12:26:11 PM 38.3669 -123.6694 131° Southeast 533 613 40,900  Level Oakland Center
Sun 12:27:13 PM 38.2703 -123.5303 131° Southeast 529 609 40,900 49 Level Oakland Center
Sun 12:28:14 PM 38.1739 -123.3914 131° Southeast 526 605 41,000 49 Climbing Oakland Center
Sun 12:29:15 PM 38.0764 -123.2544 132° Southeast 527 606 41,000 -49 Level Oakland Center
Sun 12:30:16 PM 37.9819 -123.1181 131° Southeast 520 598 40,900 -383 Descending Oakland Center
Sun 12:35:31 PM 37.4524 -122.3790 131° Southeast 516 594 38,600 -537 Descending FlightAware ADS-B
Sun 12:36:25 PM 37.3655 -122.2600 133° Southeast 525 604 37,600 -1,052 Descending FlightAware ADS-B
Sun 12:37:08 PM 37.2963 -122.1650 132° Southeast 513 590 36,900 -947 Descending FlightAware ADS-B
Sun 12:37:41 PM 37.2442 -122.0930 132° Southeast 507 583 36,400 -952 Descending FlightAware ADS-B
Sun 12:38:11 PM 37.1962 -122.0280 133° Southeast 506 582 35,900 -1,082 Descending FlightAware ADS-B
Sun 12:38:42 PM 37.1470 -121.9610 133° Southeast 500 575 35,300 -1,048 Descending FlightAware ADS-B
Sun 12:39:14 PM 37.0975 -121.8930 132° Southeast 500 575 34,800 -1,000 Descending FlightAware ADS-B
Sun 12:39:48 PM 37.0451 -121.8220 133° Southeast 493 567 34,200 -971 Descending FlightAware ADS-B
Sun 12:40:22 PM 36.9931 -121.7520 133° Southeast 489 563 33,700 -923 Descending FlightAware ADS-B
Sun 12:41:06 PM 36.9257 -121.6600 132° Southeast 484 557 33,000 -560 Descending FlightAware ADS-B
Sun 12:41:37 PM 36.8789 -121.5970 133° Southeast 481 554 33,000  Level FlightAware ADS-B
Sun 12:42:10 PM 36.8284 -121.5300 133° Southeast 481 554 33,000  Level FlightAware ADS-B
Sun 12:42:42 PM 36.7781 -121.4620 133° Southeast 507 583 33,000  Level FlightAware ADS-B
Sun 12:43:15 PM 36.7249 -121.3900 133° Southeast 520 598 33,000  Level FlightAware ADS-B
Sun 12:43:53 PM 36.6644 -121.3100 133° Southeast 521 600 33,000  Level FlightAware ADS-B
Sun 12:44:34 PM 36.6131 -121.2486 133° Southeast 518 596 33,000  Level Oakland Center
Sun 12:45:36 PM 36.5144 -121.1153 133° Southeast 522 601 33,000  Level Oakland Center
Sun 12:46:37 PM 36.3961 -120.9592 133° Southeast 519 597 33,000  Level Oakland Center
Sun 12:47:38 PM 36.2983 -120.8272 133° Southeast 519 597 33,000  Level Oakland Center
Sun 12:48:40 PM 36.1992 -120.6981 134° Southeast 519 597 33,000 -49 Level Oakland Center
Sun 12:49:41 PM 36.1008 -120.5683 133° Southeast 517 595 32,900  Descending Oakland Center
Sun 12:50:42 PM 36.0014 -120.4372 133° Southeast 520 598 33,000 49 Climbing Oakland Center
Sun 12:51:44 PM 35.9014 -120.3081 134° Southeast 520 598 33,000 -49 Level Oakland Center
Sun 12:52:45 PM 35.8011 -120.1772 133° Southeast 522 601 32,900 -49 Descending Oakland Center
Sun 12:53:46 PM 35.6997 -120.0467 134° Southeast 523 602 32,900 46 Level Oakland Center
Sun 12:54:55 PM 35.5711 -119.9131 140° Southeast 498 573 33,000 -458 Climbing Los Angeles Center
Sun 12:55:57 PM 35.4606 -119.8172 145° Southeast 487 560 31,900 -1,500 Descending Los Angeles Center
Sun 12:56:59 PM 35.3503 -119.7217 145° Southeast 483 556 29,900 -1,839 Descending Los Angeles Center
Sun 12:58:01 PM 35.2439 -119.6311 145° Southeast 468 539 28,100 -1,839 Descending Los Angeles Center
Sun 12:59:03 PM 35.1400 -119.5422 145° Southeast 457 526 26,100 -1,984 Descending Los Angeles Center
Sun 01:00:05 PM 35.0397 -119.4561 145° Southeast 447 514 24,000 -1,016 Descending Los Angeles Center
Sun 01:01:07 PM 34.9208 -119.3553 145° Southeast 436 502 24,000 -144 Level Los Angeles Center
Sun 01:02:10 PM 34.8222 -119.2708 145° Southeast 434 499 23,700 -1,008 Descending Los Angeles Center
Sun 01:03:12 PM 34.7256 -119.1883 145° Southeast 428 493 21,900 -1,742 Descending Los Angeles Center
Sun 01:04:14 PM 34.6319 -119.1108 146° Southeast 415 478 20,100 -1,742 Descending Los Angeles Center
Sun 01:05:16 PM 34.5392 -119.0353 146° Southeast 397 457 18,300 -1,935 Descending Los Angeles Center
Sun 01:06:18 PM 34.4503 -118.9603 145° Southeast 390 449 16,100 -2,177 Descending Los Angeles Center
Sun 01:07:20 PM 34.3397 -118.8750 147° Southeast 391 450 13,800 -1,935 Descending Los Angeles Center
Sun 01:08:22 PM 34.2383 -118.8386 163° South 379 436 12,100 -1,210 Descending Los Angeles Center
Sun 01:09:24 PM 34.1392 -118.8025 163° South 371 427 11,300 -968 Descending Los Angeles Center
Sun 01:10:26 PM 34.0464 -118.7503 155° Southeast 324 373 10,100 -624 Descending Los Angeles Center
Sun 01:11:29 PM 34.0286 -118.6569 103° East 286 329 10,000 -701 Descending Los Angeles Center
Sun 01:12:43 PM 34.0181 -118.5386 96° East 272 313 8,500 -1,235 Descending Los Angeles Center
Sun 01:13:45 PM 34.0108 -118.4506 96° East 268 308 7,200 -1,016 Descending Los Angeles Center
Sun 01:14:47 PM 34.0183 -118.3806 83° East 267 307 6,400 -1,016 Descending Los Angeles Center
Sun 01:15:49 PM 34.0283 -118.2794 83° East 255 293 5,100 -960 Descending Los Angeles Center
Sun 01:16:52 PM 34.0358 -118.2061 83° East 230 265 4,400 -816 Descending Los Angeles Center
Sun 01:17:54 PM 33.9944 -118.1889 161° South 204 235 3,400 -919 Descending Los Angeles Center
Sun 01:18:56 PM 33.9711 -118.2419 242° Southwest 186 214 2,500 -871 Descending Los Angeles Center
Sun 01:19:58 PM 33.9611 -118.3142 261° West 185 213 1,600 -823 Descending Los Angeles Center
Sun 01:21:00 PM 33.9567 -118.3683 264° West 175 201 800 -677 Descending Los Angeles Center
Sun 01:22:02 PM 33.9511 -118.4156 262° West 158 182 200 -581 Descending Los Angeles Center

Login

Don't have an account? Register now (free) for customized features, flight alerts, and more!